sensor_id;sensor_type;location;lat;lon;timestamp;pressure;altitude;pressure_sealevel;temperature;humidity
28448;BME280;15675;52.870;-1.416;2023-08-01T00:01:50;99340.00;;;16.11;100.00
28448;BME280;15675;52.870;-1.416;2023-08-01T00:04:15;99350.38;;;15.92;100.00
28448;BME280;15675;52.870;-1.416;2023-08-01T00:06:41;99348.03;;;16.07;100.00
28448;BME280;15675;52.870;-1.416;2023-08-01T00:09:07;99345.69;;;16.21;100.00
28448;BME280;15675;52.870;-1.416;2023-08-01T00:11:32;99347.06;;;15.87;100.00
28448;BME280;15675;52.870;-1.416;2023-08-01T00:13:58;99345.72;;;15.99;100.00
28448;BME280;15675;52.870;-1.416;2023-08-01T00:16:27;99356.16;;;16.00;100.00
28448;BME280;15675;52.870;-1.416;2023-08-01T00:18:52;99358.09;;;15.95;100.00
28448;BME280;15675;52.870;-1.416;2023-08-01T00:21:17;99359.75;;;15.74;100.00
28448;BME280;15675;52.870;-1.416;2023-08-01T00:23:43;99359.19;;;15.66;100.00
28448;BME280;15675;52.870;-1.416;2023-08-01T00:26:09;99363.91;;;15.80;100.00
28448;BME280;15675;52.870;-1.416;2023-08-01T00:28:34;99366.56;;;15.78;100.00
28448;BME280;15675;52.870;-1.416;2023-08-01T00:31:04;99362.47;;;15.95;100.00
28448;BME280;15675;52.870;-1.416;2023-08-01T00:33:30;99362.41;;;15.96;100.00
28448;BME280;15675;52.870;-1.416;2023-08-01T00:35:55;99365.81;;;15.98;100.00
28448;BME280;15675;52.870;-1.416;2023-08-01T00:38:21;99354.78;;;15.90;100.00
28448;BME280;15675;52.870;-1.416;2023-08-01T00:40:46;99366.34;;;16.07;100.00
28448;BME280;15675;52.870;-1.416;2023-08-01T00:43:12;99370.19;;;15.98;100.00
28448;BME280;15675;52.870;-1.416;2023-08-01T00:45:37;99368.34;;;16.00;100.00
28448;BME280;15675;52.870;-1.416;2023-08-01T00:48:03;99363.69;;;16.08;100.00
28448;BME280;15675;52.870;-1.416;2023-08-01T00:50:29;99368.56;;;15.95;100.00
28448;BME280;15675;52.870;-1.416;2023-08-01T00:52:55;99355.41;;;15.97;100.00
28448;BME280;15675;52.870;-1.416;2023-08-01T00:55:21;99360.09;;;16.11;100.00
28448;BME280;15675;52.870;-1.416;2023-08-01T00:57:47;99359.91;;;16.36;100.00
28448;BME280;15675;52.870;-1.416;2023-08-01T01:00:13;99356.88;;;16.25;100.00
28448;BME280;15675;52.870;-1.416;2023-08-01T01:02:39;99353.34;;;16.05;100.00
28448;BME280;15675;52.870;-1.416;2023-08-01T01:05:05;99349.91;;;16.03;100.00
28448;BME280;15675;52.870;-1.416;2023-08-01T01:07:31;99353.75;;;15.94;100.00
28448;BME280;15675;52.870;-1.416;2023-08-01T01:09:57;99360.56;;;15.76;100.00
28448;BME280;15675;52.870;-1.416;2023-08-01T01:12:23;99355.31;;;15.76;100.00
28448;BME280;15675;52.870;-1.416;2023-08-01T01:14:49;99359.59;;;15.79;100.00
28448;BME280;15675;52.870;-1.416;2023-08-01T01:17:14;99363.09;;;15.78;100.00
28448;BME280;15675;52.870;-1.416;2023-08-01T01:19:40;99371.28;;;15.92;100.00
28448;BME280;15675;52.870;-1.416;2023-08-01T01:22:07;99363.81;;;16.05;100.00
28448;BME280;15675;52.870;-1.416;2023-08-01T01:24:34;99363.16;;;15.76;100.00
28448;BME280;15675;52.870;-1.416;2023-08-01T01:27:01;99365.03;;;15.73;100.00
28448;BME280;15675;52.870;-1.416;2023-08-01T01:29:29;99370.53;;;15.66;100.00
28448;BME280;15675;52.870;-1.416;2023-08-01T01:31:57;99370.53;;;15.66;100.00
28448;BME280;15675;52.870;-1.416;2023-08-01T01:34:24;99369.53;;;15.93;100.00
28448;BME280;15675;52.870;-1.416;2023-08-01T01:36:50;99364.13;;;15.74;100.00
28448;BME280;15675;52.870;-1.416;2023-08-01T01:39:15;99371.53;;;15.62;100.00
28448;BME280;15675;52.870;-1.416;2023-08-01T01:41:41;99367.53;;;15.53;100.00
28448;BME280;15675;52.870;-1.416;2023-08-01T01:44:06;99379.22;;;15.43;100.00
28448;BME280;15675;52.870;-1.416;2023-08-01T01:46:32;99365.63;;;15.57;100.00
28448;BME280;15675;52.870;-1.416;2023-08-01T01:48:57;99377.84;;;15.57;100.00
28448;BME280;15675;52.870;-1.416;2023-08-01T01:51:34;99372.97;;;15.47;100.00
28448;BME280;15675;52.870;-1.416;2023-08-01T01:53:59;99379.03;;;15.71;100.00
28448;BME280;15675;52.870;-1.416;2023-08-01T01:56:25;99381.91;;;15.87;100.00
28448;BME280;15675;52.870;-1.416;2023-08-01T01:58:50;99374.81;;;15.67;100.00
28448;BME280;15675;52.870;-1.416;2023-08-01T02:01:16;99371.16;;;15.71;100.00
28448;BME280;15675;52.870;-1.416;2023-08-01T02:06:10;99375.28;;;15.79;100.00
28448;BME280;15675;52.870;-1.416;2023-08-01T02:08:35;99378.81;;;16.00;100.00
28448;BME280;15675;52.870;-1.416;2023-08-01T02:11:01;99366.19;;;15.89;100.00
28448;BME280;15675;52.870;-1.416;2023-08-01T02:13:27;99369.03;;;16.05;100.00
28448;BME280;15675;52.870;-1.416;2023-08-01T02:15:53;99369.25;;;15.99;100.00
28448;BME280;15675;52.870;-1.416;2023-08-01T02:18:19;99373.31;;;16.08;100.00
28448;BME280;15675;52.870;-1.416;2023-08-01T02:20:44;99371.41;;;16.11;100.00
28448;BME280;15675;52.870;-1.416;2023-08-01T02:23:10;99379.63;;;16.02;100.00
28448;BME280;15675;52.870;-1.416;2023-08-01T02:25:42;99384.00;;;16.01;100.00
28448;BME280;15675;52.870;-1.416;2023-08-01T02:28:08;99378.81;;;16.00;100.00
28448;BME280;15675;52.870;-1.416;2023-08-01T02:30:34;99373.53;;;16.24;100.00
28448;BME280;15675;52.870;-1.416;2023-08-01T02:33:00;99365.53;;;16.27;100.00
28448;BME280;15675;52.870;-1.416;2023-08-01T02:35:26;99359.53;;;16.45;100.00
28448;BME280;15675;52.870;-1.416;2023-08-01T02:37:54;99364.88;;;16.21;100.00
28448;BME280;15675;52.870;-1.416;2023-08-01T02:40:19;99361.94;;;16.29;100.00
28448;BME280;15675;52.870;-1.416;2023-08-01T02:42:45;99359.50;;;16.25;100.00
28448;BME280;15675;52.870;-1.416;2023-08-01T02:45:11;99360.31;;;16.04;100.00
28448;BME280;15675;52.870;-1.416;2023-08-01T02:47:37;99369.75;;;16.09;100.00
28448;BME280;15675;52.870;-1.416;2023-08-01T02:50:03;99364.50;;;16.09;100.00
28448;BME280;15675;52.870;-1.416;2023-08-01T02:52:29;99368.41;;;15.98;100.00
28448;BME280;15675;52.870;-1.416;2023-08-01T02:54:55;99365.31;;;16.11;100.00
28448;BME280;15675;52.870;-1.416;2023-08-01T02:57:20;99370.88;;;15.81;100.00
28448;BME280;15675;52.870;-1.416;2023-08-01T02:59:46;99372.69;;;15.77;100.00
28448;BME280;15675;52.870;-1.416;2023-08-01T03:02:12;99372.50;;;15.83;100.00
28448;BME280;15675;52.870;-1.416;2023-08-01T03:04:38;99377.19;;;15.97;100.00
28448;BME280;15675;52.870;-1.416;2023-08-01T03:07:03;99367.75;;;16.15;100.00
28448;BME280;15675;52.870;-1.416;2023-08-01T03:09:29;99374.50;;;16.21;100.00
28448;BME280;15675;52.870;-1.416;2023-08-01T03:11:54;99376.69;;;16.10;100.00
28448;BME280;15675;52.870;-1.416;2023-08-01T03:14:20;99367.47;;;16.01;100.00
28448;BME280;15675;52.870;-1.416;2023-08-01T03:16:45;99371.03;;;15.98;100.00
28448;BME280;15675;52.870;-1.416;2023-08-01T03:19:11;99372.38;;;15.86;100.00
28448;BME280;15675;52.870;-1.416;2023-08-01T03:21:37;99362.16;;;15.80;100.00
28448;BME280;15675;52.870;-1.416;2023-08-01T03:24:03;99365.44;;;15.85;100.00
28448;BME280;15675;52.870;-1.416;2023-08-01T03:26:29;99356.81;;;15.83;100.00
28448;BME280;15675;52.870;-1.416;2023-08-01T03:28:55;99362.75;;;15.87;100.00
28448;BME280;15675;52.870;-1.416;2023-08-01T03:31:22;99364.84;;;15.77;100.00
28448;BME280;15675;52.870;-1.416;2023-08-01T03:33:48;99351.94;;;15.96;100.00
28448;BME280;15675;52.870;-1.416;2023-08-01T03:36:16;99356.16;;;15.77;100.00
28448;BME280;15675;52.870;-1.416;2023-08-01T03:38:42;99357.19;;;15.96;100.00
28448;BME280;15675;52.870;-1.416;2023-08-01T03:41:08;99353.56;;;16.21;100.00
28448;BME280;15675;52.870;-1.416;2023-08-01T03:43:34;99351.47;;;15.86;100.00
28448;BME280;15675;52.870;-1.416;2023-08-01T03:45:59;99351.00;;;15.75;100.00
28448;BME280;15675;52.870;-1.416;2023-08-01T03:48:25;99355.75;;;15.87;100.00
28448;BME280;15675;52.870;-1.416;2023-08-01T03:50:50;99353.44;;;15.58;100.00
28448;BME280;15675;52.870;-1.416;2023-08-01T03:53:16;99356.34;;;15.72;100.00
28448;BME280;15675;52.870;-1.416;2023-08-01T03:55:43;99350.94;;;15.77;100.00
28448;BME280;15675;52.870;-1.416;2023-08-01T03:58:09;99346.53;;;15.55;100.00
28448;BME280;15675;52.870;-1.416;2023-08-01T04:00:35;99349.88;;;15.59;100.00
28448;BME280;15675;52.870;-1.416;2023-08-01T04:03:01;99348.59;;;15.47;100.00
28448;BME280;15675;52.870;-1.416;2023-08-01T04:05:28;99356.63;;;15.64;100.00
28448;BME280;15675;52.870;-1.416;2023-08-01T04:07:53;99359.34;;;15.39;100.00
28448;BME280;15675;52.870;-1.416;2023-08-01T04:10:21;99359.31;;;15.63;100.00
28448;BME280;15675;52.870;-1.416;2023-08-01T04:12:46;99364.84;;;15.77;100.00
28448;BME280;15675;52.870;-1.416;2023-08-01T04:15:12;99365.22;;;15.68;100.00
28448;BME280;15675;52.870;-1.416;2023-08-01T04:17:37;99354.75;;;15.68;100.00
28448;BME280;15675;52.870;-1.416;2023-08-01T04:20:03;99359.13;;;15.67;100.00
28448;BME280;15675;52.870;-1.416;2023-08-01T04:22:29;99352.31;;;15.63;100.00
28448;BME280;15675;52.870;-1.416;2023-08-01T04:24:54;99368.88;;;15.64;100.00
28448;BME280;15675;52.870;-1.416;2023-08-01T04:27:20;99356.16;;;15.77;100.00
28448;BME280;15675;52.870;-1.416;2023-08-01T04:29:47;99354.78;;;15.90;100.00
28448;BME280;15675;52.870;-1.416;2023-08-01T04:32:12;99360.66;;;15.73;100.00
28448;BME280;15675;52.870;-1.416;2023-08-01T04:34:40;99359.38;;;15.61;100.00
28448;BME280;15675;52.870;-1.416;2023-08-01T04:37:06;99361.59;;;15.72;100.00
28448;BME280;15675;52.870;-1.416;2023-08-01T04:39:32;99365.72;;;15.78;100.00
28448;BME280;15675;52.870;-1.416;2023-08-01T04:41:57;99371.34;;;15.91;100.00
28448;BME280;15675;52.870;-1.416;2023-08-01T04:44:23;99371.69;;;15.81;100.00
28448;BME280;15675;52.870;-1.416;2023-08-01T04:46:48;99366.56;;;16.02;100.00
28448;BME280;15675;52.870;-1.416;2023-08-01T04:49:14;99373.13;;;16.12;100.00
28448;BME280;15675;52.870;-1.416;2023-08-01T04:51:40;99379.59;;;16.24;100.00
28448;BME280;15675;52.870;-1.416;2023-08-01T04:54:05;99376.94;;;16.03;100.00
28448;BME280;15675;52.870;-1.416;2023-08-01T04:56:31;99379.88;;;16.18;100.00
28448;BME280;15675;52.870;-1.416;2023-08-01T04:58:56;99380.44;;;16.25;100.00
28448;BME280;15675;52.870;-1.416;2023-08-01T05:01:22;99386.34;;;16.30;100.00
28448;BME280;15675;52.870;-1.416;2023-08-01T05:03:48;99381.19;;;16.06;100.00
28448;BME280;15675;52.870;-1.416;2023-08-01T05:06:13;99384.19;;;15.73;100.00
28448;BME280;15675;52.870;-1.416;2023-08-01T05:08:39;99384.44;;;15.67;100.00
28448;BME280;15675;52.870;-1.416;2023-08-01T05:11:04;99387.75;;;15.72;100.00
28448;BME280;15675;52.870;-1.416;2023-08-01T05:13:30;99392.22;;;15.68;100.00
28448;BME280;15675;52.870;-1.416;2023-08-01T05:15:55;99395.09;;;16.08;100.00
28448;BME280;15675;52.870;-1.416;2023-08-01T05:18:21;99388.94;;;15.87;100.00
28448;BME280;15675;52.870;-1.416;2023-08-01T05:20:46;99400.34;;;15.84;100.00
28448;BME280;15675;52.870;-1.416;2023-08-01T05:23:12;99401.28;;;15.83;100.00
28448;BME280;15675;52.870;-1.416;2023-08-01T05:25:38;99384.50;;;15.89;100.00
28448;BME280;15675;52.870;-1.416;2023-08-01T05:28:03;99380.78;;;15.95;100.00
28448;BME280;15675;52.870;-1.416;2023-08-01T05:30:29;99388.31;;;15.80;100.00
28448;BME280;15675;52.870;-1.416;2023-08-01T05:32:54;99384.53;;;15.87;100.00
28448;BME280;15675;52.870;-1.416;2023-08-01T05:35:20;99387.63;;;15.75;100.00
28448;BME280;15675;52.870;-1.416;2023-08-01T05:37:46;99389.25;;;15.79;100.00
28448;BME280;15675;52.870;-1.416;2023-08-01T05:40:12;99390.06;;;15.80;100.00
28448;BME280;15675;52.870;-1.416;2023-08-01T05:42:38;99401.09;;;15.88;100.00
28448;BME280;15675;52.870;-1.416;2023-08-01T05:45:04;99400.44;;;16.05;100.00
28448;BME280;15675;52.870;-1.416;2023-08-01T05:47:29;99401.66;;;15.96;100.00
28448;BME280;15675;52.870;-1.416;2023-08-01T05:49:55;99406.03;;;15.96;100.00
28448;BME280;15675;52.870;-1.416;2023-08-01T05:52:20;99404.59;;;16.11;100.00
28448;BME280;15675;52.870;-1.416;2023-08-01T05:54:46;99405.50;;;16.32;100.00
28448;BME280;15675;52.870;-1.416;2023-08-01T05:57:12;99406.75;;;16.21;100.00
28448;BME280;15675;52.870;-1.416;2023-08-01T05:59:37;99408.34;;;16.03;100.00
28448;BME280;15675;52.870;-1.416;2023-08-01T06:02:03;99408.72;;;16.16;100.00
28448;BME280;15675;52.870;-1.416;2023-08-01T06:04:29;99411.22;;;16.19;100.00
28448;BME280;15675;52.870;-1.416;2023-08-01T06:06:54;99411.22;;;16.19;100.00
28448;BME280;15675;52.870;-1.416;2023-08-01T06:09:20;99421.31;;;16.07;100.00
28448;BME280;15675;52.870;-1.416;2023-08-01T06:11:45;99421.34;;;16.27;100.00
28448;BME280;15675;52.870;-1.416;2023-08-01T06:14:11;99420.13;;;15.92;100.00
28448;BME280;15675;52.870;-1.416;2023-08-01T06:16:36;99429.63;;;15.94;100.00
28448;BME280;15675;52.870;-1.416;2023-08-01T06:19:02;99425.38;;;15.68;100.00
28448;BME280;15675;52.870;-1.416;2023-08-01T06:21:28;99433.59;;;15.82;100.00
28448;BME280;15675;52.870;-1.416;2023-08-01T06:23:53;99430.31;;;15.99;100.00
28448;BME280;15675;52.870;-1.416;2023-08-01T06:26:19;99426.09;;;16.17;100.00
28448;BME280;15675;52.870;-1.416;2023-08-01T06:28:44;99420.28;;;16.11;100.00
28448;BME280;15675;52.870;-1.416;2023-08-01T06:31:10;99436.53;;;15.97;100.00
28448;BME280;15675;52.870;-1.416;2023-08-01T06:33:36;99428.00;;;16.14;100.00
28448;BME280;15675;52.870;-1.416;2023-08-01T06:36:01;99427.34;;;16.31;100.00
28448;BME280;15675;52.870;-1.416;2023-08-01T06:38:27;99426.31;;;15.91;100.00
28448;BME280;15675;52.870;-1.416;2023-08-01T06:40:52;99424.13;;;16.02;100.00
28448;BME280;15675;52.870;-1.416;2023-08-01T06:43:18;99420.47;;;16.49;100.00
28448;BME280;15675;52.870;-1.416;2023-08-01T06:45:43;99418.09;;;16.65;100.00
28448;BME280;15675;52.870;-1.416;2023-08-01T06:48:09;99409.50;;;16.41;100.00
28448;BME280;15675;52.870;-1.416;2023-08-01T06:50:34;99419.13;;;16.18;100.00
28448;BME280;15675;52.870;-1.416;2023-08-01T06:53:01;99424.13;;;16.02;100.00
28448;BME280;15675;52.870;-1.416;2023-08-01T06:55:26;99426.84;;;15.99;100.00
28448;BME280;15675;52.870;-1.416;2023-08-01T06:57:52;99433.13;;;16.39;100.00
28448;BME280;15675;52.870;-1.416;2023-08-01T07:00:18;99440.31;;;16.34;100.00
28448;BME280;15675;52.870;-1.416;2023-08-01T07:02:43;99435.66;;;16.18;100.00
28448;BME280;15675;52.870;-1.416;2023-08-01T07:05:09;99440.09;;;15.94;100.00
28448;BME280;15675;52.870;-1.416;2023-08-01T07:07:34;99435.97;;;16.33;100.00
28448;BME280;15675;52.870;-1.416;2023-08-01T07:10:00;99439.63;;;16.07;100.00
28448;BME280;15675;52.870;-1.416;2023-08-01T07:12:26;99447.72;;;16.22;100.00
28448;BME280;15675;52.870;-1.416;2023-08-01T07:14:51;99451.63;;;16.34;100.00
28448;BME280;15675;52.870;-1.416;2023-08-01T07:17:17;99448.88;;;16.15;100.00
28448;BME280;15675;52.870;-1.416;2023-08-01T07:19:42;99439.19;;;16.17;100.00
28448;BME280;15675;52.870;-1.416;2023-08-01T07:22:08;99445.66;;;16.31;100.00
28448;BME280;15675;52.870;-1.416;2023-08-01T07:24:34;99451.06;;;16.48;100.00
28448;BME280;15675;52.870;-1.416;2023-08-01T07:26:59;99449.31;;;16.27;100.00
28448;BME280;15675;52.870;-1.416;2023-08-01T07:29:25;99466.19;;;16.19;100.00
28448;BME280;15675;52.870;-1.416;2023-08-01T07:31:51;99469.22;;;16.31;100.00
28448;BME280;15675;52.870;-1.416;2023-08-01T07:34:16;99456.84;;;16.56;100.00
28448;BME280;15675;52.870;-1.416;2023-08-01T07:36:42;99456.69;;;16.39;100.00
28448;BME280;15675;52.870;-1.416;2023-08-01T07:39:08;99461.47;;;16.50;100.00
28448;BME280;15675;52.870;-1.416;2023-08-01T07:41:33;99455.41;;;16.70;100.00
28448;BME280;15675;52.870;-1.416;2023-08-01T07:44:01;99476.28;;;16.51;100.00
28448;BME280;15675;52.870;-1.416;2023-08-01T07:46:28;99462.75;;;16.62;100.00
28448;BME280;15675;52.870;-1.416;2023-08-01T07:48:54;99473.94;;;16.65;100.00
28448;BME280;15675;52.870;-1.416;2023-08-01T07:51:19;99470.75;;;16.79;100.00
28448;BME280;15675;52.870;-1.416;2023-08-01T07:53:45;99472.22;;;16.86;100.00
28448;BME280;15675;52.870;-1.416;2023-08-01T07:56:10;99481.69;;;16.90;100.00
28448;BME280;15675;52.870;-1.416;2023-08-01T07:58:36;99473.94;;;16.87;100.00
28448;BME280;15675;52.870;-1.416;2023-08-01T08:01:05;99479.59;;;16.99;100.00
28448;BME280;15675;52.870;-1.416;2023-08-01T08:03:31;99480.69;;;16.71;100.00
28448;BME280;15675;52.870;-1.416;2023-08-01T08:05:57;99485.88;;;16.72;100.00
28448;BME280;15675;52.870;-1.416;2023-08-01T08:08:24;99479.03;;;16.48;100.00
28448;BME280;15675;52.870;-1.416;2023-08-01T08:10:49;99480.69;;;16.71;100.00
28448;BME280;15675;52.870;-1.416;2023-08-01T08:13:15;99474.78;;;16.88;100.00
28448;BME280;15675;52.870;-1.416;2023-08-01T08:15:40;99466.63;;;16.73;100.00
28448;BME280;15675;52.870;-1.416;2023-08-01T08:18:06;99486.28;;;16.63;100.00
28448;BME280;15675;52.870;-1.416;2023-08-01T08:20:40;99475.88;;;16.60;100.00
28448;BME280;15675;52.870;-1.416;2023-08-01T08:23:05;99480.44;;;16.77;100.00
28448;BME280;15675;52.870;-1.416;2023-08-01T08:25:31;99478.59;;;17.22;100.00
28448;BME280;15675;52.870;-1.416;2023-08-01T08:27:57;99472.69;;;17.17;100.00
28448;BME280;15675;52.870;-1.416;2023-08-01T08:30:22;99478.69;;;16.78;100.00
28448;BME280;15675;52.870;-1.416;2023-08-01T08:32:48;99488.31;;;16.77;100.00
28448;BME280;15675;52.870;-1.416;2023-08-01T08:35:13;99485.81;;;16.96;100.00
28448;BME280;15675;52.870;-1.416;2023-08-01T08:37:39;99488.06;;;16.83;100.00
28448;BME280;15675;52.870;-1.416;2023-08-01T08:40:05;99489.44;;;16.49;100.00
28448;BME280;15675;52.870;-1.416;2023-08-01T08:42:33;99500.22;;;16.84;100.00
28448;BME280;15675;52.870;-1.416;2023-08-01T08:45:01;99499.81;;;17.16;100.00
28448;BME280;15675;52.870;-1.416;2023-08-01T08:47:27;99497.41;;;17.11;100.00
28448;BME280;15675;52.870;-1.416;2023-08-01T08:49:55;99505.41;;;17.08;100.00
28448;BME280;15675;52.870;-1.416;2023-08-01T08:52:26;99509.06;;;17.04;100.00
28448;BME280;15675;52.870;-1.416;2023-08-01T08:54:52;99500.63;;;17.18;100.00
28448;BME280;15675;52.870;-1.416;2023-08-01T08:57:19;99522.91;;;17.07;100.00
28448;BME280;15675;52.870;-1.416;2023-08-01T08:59:44;99512.19;;;16.91;100.00
28448;BME280;15675;52.870;-1.416;2023-08-01T09:02:10;99513.53;;;16.80;100.00
28448;BME280;15675;52.870;-1.416;2023-08-01T09:04:36;99508.41;;;16.77;100.00
28448;BME280;15675;52.870;-1.416;2023-08-01T09:07:09;99513.59;;;16.78;100.00
28448;BME280;15675;52.870;-1.416;2023-08-01T09:09:36;99518.06;;;16.76;100.00
28448;BME280;15675;52.870;-1.416;2023-08-01T09:12:04;99507.88;;;17.11;100.00
28448;BME280;15675;52.870;-1.416;2023-08-01T09:14:29;99514.13;;;17.29;100.00
28448;BME280;15675;52.870;-1.416;2023-08-01T09:17:06;99516.94;;;17.45;100.00
28448;BME280;15675;52.870;-1.416;2023-08-01T09:19:32;99526.16;;;17.13;100.00
28448;BME280;15675;52.870;-1.416;2023-08-01T09:21:58;99519.28;;;16.89;100.00
28448;BME280;15675;52.870;-1.416;2023-08-01T09:24:23;99532.28;;;17.13;100.00
28448;BME280;15675;52.870;-1.416;2023-08-01T09:26:49;99534.09;;;16.90;100.00
28448;BME280;15675;52.870;-1.416;2023-08-01T09:29:19;99526.94;;;16.94;100.00
28448;BME280;15675;52.870;-1.416;2023-08-01T09:31:45;99530.00;;;16.83;100.00
28448;BME280;15675;52.870;-1.416;2023-08-01T09:34:19;99546.25;;;16.91;100.00
28448;BME280;15675;52.870;-1.416;2023-08-01T09:36:45;99537.69;;;16.88;100.00
28448;BME280;15675;52.870;-1.416;2023-08-01T09:39:19;99543.84;;;16.65;100.00
28448;BME280;15675;52.870;-1.416;2023-08-01T09:41:45;99547.72;;;16.54;100.00
28448;BME280;15675;52.870;-1.416;2023-08-01T09:44:12;99552.47;;;16.67;100.00
28448;BME280;15675;52.870;-1.416;2023-08-01T09:46:37;99547.63;;;16.58;100.00
28448;BME280;15675;52.870;-1.416;2023-08-01T09:49:07;99552.78;;;17.03;100.00
28448;BME280;15675;52.870;-1.416;2023-08-01T09:51:33;99553.84;;;17.20;100.00
28448;BME280;15675;52.870;-1.416;2023-08-01T09:53:58;99556.84;;;17.31;100.00
28448;BME280;15675;52.870;-1.416;2023-08-01T09:56:27;99542.03;;;17.51;100.00
28448;BME280;15675;52.870;-1.416;2023-08-01T09:58:55;99543.13;;;17.66;100.00
28448;BME280;15675;52.870;-1.416;2023-08-01T10:01:23;99539.50;;;17.49;100.00
28448;BME280;15675;52.870;-1.416;2023-08-01T10:03:52;99536.91;;;17.68;100.00
28448;BME280;15675;52.870;-1.416;2023-08-01T10:08:46;99524.59;;;18.46;100.00
28448;BME280;15675;52.870;-1.416;2023-08-01T10:11:17;99519.72;;;18.01;100.00
28448;BME280;15675;52.870;-1.416;2023-08-01T10:13:44;99520.78;;;17.97;100.00
28448;BME280;15675;52.870;-1.416;2023-08-01T10:16:12;99519.72;;;18.01;100.00
28448;BME280;15675;52.870;-1.416;2023-08-01T10:18:38;99529.97;;;17.67;100.00
28448;BME280;15675;52.870;-1.416;2023-08-01T10:21:11;99518.97;;;17.78;100.00
28448;BME280;15675;52.870;-1.416;2023-08-01T10:23:37;99506.53;;;18.02;100.00
28448;BME280;15675;52.870;-1.416;2023-08-01T10:26:05;99506.44;;;17.45;100.00
28448;BME280;15675;52.870;-1.416;2023-08-01T10:28:41;99508.22;;;17.84;100.00
28448;BME280;15675;52.870;-1.416;2023-08-01T10:31:16;99514.06;;;17.91;100.00
28448;BME280;15675;52.870;-1.416;2023-08-01T10:33:44;99526.69;;;17.62;100.00
28448;BME280;15675;52.870;-1.416;2023-08-01T10:38:50;99523.91;;;17.86;100.00
28448;BME280;15675;52.870;-1.416;2023-08-01T10:41:34;99522.03;;;17.88;100.00
28448;BME280;15675;52.870;-1.416;2023-08-01T10:44:14;99524.78;;;18.24;97.96
28448;BME280;15675;52.870;-1.416;2023-08-01T10:46:59;99529.47;;;18.18;97.74
28448;BME280;15675;52.870;-1.416;2023-08-01T10:49:44;99536.88;;;18.27;96.77
28448;BME280;15675;52.870;-1.416;2023-08-01T10:52:20;99529.38;;;18.19;98.17
28448;BME280;15675;52.870;-1.416;2023-08-01T10:54:58;99527.00;;;18.51;97.79
28448;BME280;15675;52.870;-1.416;2023-08-01T10:57:26;99521.13;;;18.46;95.24
28448;BME280;15675;52.870;-1.416;2023-08-01T10:59:51;99528.13;;;18.65;96.84
28448;BME280;15675;52.870;-1.416;2023-08-01T11:02:22;99530.03;;;18.61;95.16
28448;BME280;15675;52.870;-1.416;2023-08-01T11:04:55;99520.25;;;18.82;92.73
28448;BME280;15675;52.870;-1.416;2023-08-01T11:07:21;99511.47;;;19.36;93.61
28448;BME280;15675;52.870;-1.416;2023-08-01T11:09:47;99516.56;;;18.86;88.38
28448;BME280;15675;52.870;-1.416;2023-08-01T11:12:12;99513.31;;;18.44;89.04
28448;BME280;15675;52.870;-1.416;2023-08-01T11:14:38;99519.09;;;18.70;90.86
28448;BME280;15675;52.870;-1.416;2023-08-01T11:17:04;99518.06;;;18.92;89.83
28448;BME280;15675;52.870;-1.416;2023-08-01T11:19:30;99525.81;;;18.58;89.79
28448;BME280;15675;52.870;-1.416;2023-08-01T11:21:56;99522.25;;;18.96;88.34
28448;BME280;15675;52.870;-1.416;2023-08-01T11:24:24;99530.59;;;18.12;88.93
28448;BME280;15675;52.870;-1.416;2023-08-01T11:26:50;99538.13;;;18.01;91.55
28448;BME280;15675;52.870;-1.416;2023-08-01T11:29:17;99534.34;;;18.06;92.81
28448;BME280;15675;52.870;-1.416;2023-08-01T11:31:57;99526.19;;;18.68;94.63
28448;BME280;15675;52.870;-1.416;2023-08-01T11:34:23;99528.81;;;18.87;93.47
28448;BME280;15675;52.870;-1.416;2023-08-01T11:36:49;99528.50;;;18.93;90.56
28448;BME280;15675;52.870;-1.416;2023-08-01T11:39:15;99520.84;;;18.89;89.30
28448;BME280;15675;52.870;-1.416;2023-08-01T11:41:42;99522.69;;;18.87;89.82
28448;BME280;15675;52.870;-1.416;2023-08-01T11:44:08;99524.16;;;18.92;89.99
28448;BME280;15675;52.870;-1.416;2023-08-01T11:46:35;99520.78;;;19.25;90.58
28448;BME280;15675;52.870;-1.416;2023-08-01T11:49:07;99521.94;;;19.02;89.78
28448;BME280;15675;52.870;-1.416;2023-08-01T11:51:43;99523.75;;;19.53;90.67
28448;BME280;15675;52.870;-1.416;2023-08-01T11:54:10;99521.00;;;20.05;88.42
28448;BME280;15675;52.870;-1.416;2023-08-01T11:56:40;99525.94;;;20.11;87.18
28448;BME280;15675;52.870;-1.416;2023-08-01T11:59:15;99520.31;;;20.33;86.13
28448;BME280;15675;52.870;-1.416;2023-08-01T12:01:43;99525.13;;;19.93;85.87
28448;BME280;15675;52.870;-1.416;2023-08-01T12:04:10;99527.59;;;19.63;84.37
28448;BME280;15675;52.870;-1.416;2023-08-01T12:06:36;99526.38;;;19.53;84.20
28448;BME280;15675;52.870;-1.416;2023-08-01T12:09:10;99532.03;;;19.45;84.12
28448;BME280;15675;52.870;-1.416;2023-08-01T12:11:37;99531.13;;;19.46;86.08
28448;BME280;15675;52.870;-1.416;2023-08-01T12:14:15;99528.88;;;19.89;87.41
28448;BME280;15675;52.870;-1.416;2023-08-01T12:16:46;99524.56;;;20.04;86.13
28448;BME280;15675;52.870;-1.416;2023-08-01T12:19:19;99525.09;;;20.27;85.69
28448;BME280;15675;52.870;-1.416;2023-08-01T12:21:45;99529.41;;;20.12;82.93
28448;BME280;15675;52.870;-1.416;2023-08-01T12:24:11;99530.69;;;20.05;82.29
28448;BME280;15675;52.870;-1.416;2023-08-01T12:26:37;99530.56;;;19.90;84.25
28448;BME280;15675;52.870;-1.416;2023-08-01T12:29:02;99539.00;;;19.97;83.50
28448;BME280;15675;52.870;-1.416;2023-08-01T12:31:28;99548.59;;;19.47;84.54
28448;BME280;15675;52.870;-1.416;2023-08-01T12:33:54;99543.28;;;19.13;87.53
28448;BME280;15675;52.870;-1.416;2023-08-01T12:36:20;99540.81;;;19.45;88.76
28448;BME280;15675;52.870;-1.416;2023-08-01T12:38:46;99545.31;;;19.59;89.04
28448;BME280;15675;52.870;-1.416;2023-08-01T12:41:11;99545.72;;;19.52;87.15
28448;BME280;15675;52.870;-1.416;2023-08-01T12:43:37;99538.09;;;19.47;87.83
28448;BME280;15675;52.870;-1.416;2023-08-01T12:46:03;99541.00;;;19.41;88.02